sensor_id;sensor_type;location;lat;lon;timestamp;P1;durP1;ratioP1;P2;durP2;ratioP2
22929;SDS011;11630;42.660;23.292;2023-03-13T00:02:24;7.77;;;6.27;;
22929;SDS011;11630;42.660;23.292;2023-03-13T00:04:55;9.77;;;7.07;;
22929;SDS011;11630;42.660;23.292;2023-03-13T00:07:26;8.40;;;6.83;;
22929;SDS011;11630;42.660;23.292;2023-03-13T00:09:56;10.73;;;7.43;;
22929;SDS011;11630;42.660;23.292;2023-03-13T00:12:28;10.23;;;6.97;;
22929;SDS011;11630;42.660;23.292;2023-03-13T00:14:58;8.93;;;7.23;;
22929;SDS011;11630;42.660;23.292;2023-03-13T00:17:29;13.80;;;8.33;;
22929;SDS011;11630;42.660;23.292;2023-03-13T00:20:00;8.13;;;5.80;;
22929;SDS011;11630;42.660;23.292;2023-03-13T00:22:31;7.33;;;6.03;;
22929;SDS011;11630;42.660;23.292;2023-03-13T00:25:02;9.47;;;6.17;;
22929;SDS011;11630;42.660;23.292;2023-03-13T00:27:33;10.37;;;6.93;;
22929;SDS011;11630;42.660;23.292;2023-03-13T00:30:03;7.97;;;5.90;;
22929;SDS011;11630;42.660;23.292;2023-03-13T00:32:39;7.33;;;6.37;;
22929;SDS011;11630;42.660;23.292;2023-03-13T00:35:10;8.40;;;6.73;;
22929;SDS011;11630;42.660;23.292;2023-03-13T00:37:41;10.93;;;6.60;;
22929;SDS011;11630;42.660;23.292;2023-03-13T00:40:16;6.97;;;5.97;;
22929;SDS011;11630;42.660;23.292;2023-03-13T00:42:48;7.37;;;6.03;;
22929;SDS011;11630;42.660;23.292;2023-03-13T00:45:18;8.47;;;5.63;;
22929;SDS011;11630;42.660;23.292;2023-03-13T00:47:49;8.73;;;5.50;;
22929;SDS011;11630;42.660;23.292;2023-03-13T00:50:20;8.00;;;5.77;;
22929;SDS011;11630;42.660;23.292;2023-03-13T00:52:51;7.90;;;6.27;;
22929;SDS011;11630;42.660;23.292;2023-03-13T00:55:22;12.43;;;5.77;;
22929;SDS011;11630;42.660;23.292;2023-03-13T00:57:57;7.10;;;6.33;;
22929;SDS011;11630;42.660;23.292;2023-03-13T01:00:28;6.13;;;5.47;;
22929;SDS011;11630;42.660;23.292;2023-03-13T01:02:58;6.83;;;5.53;;
22929;SDS011;11630;42.660;23.292;2023-03-13T01:05:30;7.23;;;6.33;;
22929;SDS011;11630;42.660;23.292;2023-03-13T01:08:00;7.73;;;6.30;;
22929;SDS011;11630;42.660;23.292;2023-03-13T01:10:31;9.07;;;6.97;;
22929;SDS011;11630;42.660;23.292;2023-03-13T01:13:02;8.20;;;6.57;;
22929;SDS011;11630;42.660;23.292;2023-03-13T01:15:34;7.67;;;6.70;;
22929;SDS011;11630;42.660;23.292;2023-03-13T01:18:04;10.77;;;7.03;;
22929;SDS011;11630;42.660;23.292;2023-03-13T01:20:35;8.43;;;6.87;;
22929;SDS011;11630;42.660;23.292;2023-03-13T01:23:09;8.53;;;6.80;;
22929;SDS011;11630;42.660;23.292;2023-03-13T01:25:40;9.20;;;7.10;;
22929;SDS011;11630;42.660;23.292;2023-03-13T01:28:10;11.30;;;6.37;;
22929;SDS011;11630;42.660;23.292;2023-03-13T01:30:41;9.73;;;6.73;;
22929;SDS011;11630;42.660;23.292;2023-03-13T01:33:12;11.53;;;7.20;;
22929;SDS011;11630;42.660;23.292;2023-03-13T01:35:44;10.90;;;7.83;;
22929;SDS011;11630;42.660;23.292;2023-03-13T01:38:14;9.00;;;6.63;;
22929;SDS011;11630;42.660;23.292;2023-03-13T01:40:46;11.00;;;7.00;;
22929;SDS011;11630;42.660;23.292;2023-03-13T01:43:21;10.63;;;6.67;;
22929;SDS011;11630;42.660;23.292;2023-03-13T01:48:46;7.00;;;6.30;;
22929;SDS011;11630;42.660;23.292;2023-03-13T01:51:35;9.10;;;7.00;;
22929;SDS011;11630;42.660;23.292;2023-03-13T01:54:21;7.80;;;6.77;;
22929;SDS011;11630;42.660;23.292;2023-03-13T01:59:27;8.23;;;6.63;;
22929;SDS011;11630;42.660;23.292;2023-03-13T02:01:58;8.67;;;6.57;;
22929;SDS011;11630;42.660;23.292;2023-03-13T02:04:30;10.47;;;7.63;;
22929;SDS011;11630;42.660;23.292;2023-03-13T02:07:06;11.10;;;6.17;;
22929;SDS011;11630;42.660;23.292;2023-03-13T02:09:37;7.37;;;6.33;;
22929;SDS011;11630;42.660;23.292;2023-03-13T02:12:10;8.50;;;6.53;;
22929;SDS011;11630;42.660;23.292;2023-03-13T02:14:42;6.63;;;5.93;;
22929;SDS011;11630;42.660;23.292;2023-03-13T02:17:16;12.13;;;5.77;;
22929;SDS011;11630;42.660;23.292;2023-03-13T02:19:48;6.40;;;5.53;;
22929;SDS011;11630;42.660;23.292;2023-03-13T02:22:37;8.63;;;5.63;;
22929;SDS011;11630;42.660;23.292;2023-03-13T02:28:04;8.40;;;6.43;;
22929;SDS011;11630;42.660;23.292;2023-03-13T02:30:37;9.63;;;7.13;;
22929;SDS011;11630;42.660;23.292;2023-03-13T02:33:10;8.50;;;7.00;;
22929;SDS011;11630;42.660;23.292;2023-03-13T02:35:43;8.33;;;5.70;;
22929;SDS011;11630;42.660;23.292;2023-03-13T02:38:16;7.43;;;5.57;;
22929;SDS011;11630;42.660;23.292;2023-03-13T02:40:46;8.30;;;5.20;;
22929;SDS011;11630;42.660;23.292;2023-03-13T02:43:33;7.37;;;5.20;;
22929;SDS011;11630;42.660;23.292;2023-03-13T02:46:05;6.63;;;4.90;;
22929;SDS011;11630;42.660;23.292;2023-03-13T02:48:39;6.00;;;4.20;;
22929;SDS011;11630;42.660;23.292;2023-03-13T02:51:18;7.57;;;4.87;;
22929;SDS011;11630;42.660;23.292;2023-03-13T02:53:53;6.00;;;4.27;;
22929;SDS011;11630;42.660;23.292;2023-03-13T02:56:25;5.00;;;3.87;;
22929;SDS011;11630;42.660;23.292;2023-03-13T02:58:59;6.73;;;4.60;;
22929;SDS011;11630;42.660;23.292;2023-03-13T03:01:28;9.27;;;4.93;;
22929;SDS011;11630;42.660;23.292;2023-03-13T03:03:59;7.23;;;4.97;;
22929;SDS011;11630;42.660;23.292;2023-03-13T03:06:29;6.07;;;5.03;;
22929;SDS011;11630;42.660;23.292;2023-03-13T03:09:01;7.93;;;4.70;;
22929;SDS011;11630;42.660;23.292;2023-03-13T03:11:32;7.80;;;4.73;;
22929;SDS011;11630;42.660;23.292;2023-03-13T03:14:04;8.07;;;5.50;;
22929;SDS011;11630;42.660;23.292;2023-03-13T03:16:35;8.17;;;5.13;;
22929;SDS011;11630;42.660;23.292;2023-03-13T03:19:06;13.40;;;5.50;;
22929;SDS011;11630;42.660;23.292;2023-03-13T03:21:36;7.53;;;5.67;;
22929;SDS011;11630;42.660;23.292;2023-03-13T03:24:07;14.60;;;7.33;;
22929;SDS011;11630;42.660;23.292;2023-03-13T03:26:37;8.87;;;6.50;;
22929;SDS011;11630;42.660;23.292;2023-03-13T03:29:08;7.07;;;5.23;;
22929;SDS011;11630;42.660;23.292;2023-03-13T03:31:38;11.07;;;5.30;;
22929;SDS011;11630;42.660;23.292;2023-03-13T03:34:10;11.23;;;5.93;;
22929;SDS011;11630;42.660;23.292;2023-03-13T03:36:41;7.43;;;6.50;;
22929;SDS011;11630;42.660;23.292;2023-03-13T03:39:12;9.27;;;6.50;;
22929;SDS011;11630;42.660;23.292;2023-03-13T03:41:43;12.17;;;7.20;;
22929;SDS011;11630;42.660;23.292;2023-03-13T03:44:14;10.47;;;6.40;;
22929;SDS011;11630;42.660;23.292;2023-03-13T03:46:45;8.33;;;6.07;;
22929;SDS011;11630;42.660;23.292;2023-03-13T03:49:15;10.50;;;6.17;;
22929;SDS011;11630;42.660;23.292;2023-03-13T03:51:46;9.17;;;6.20;;
22929;SDS011;11630;42.660;23.292;2023-03-13T03:54:17;10.37;;;7.30;;
22929;SDS011;11630;42.660;23.292;2023-03-13T03:56:48;10.33;;;7.83;;
22929;SDS011;11630;42.660;23.292;2023-03-13T03:59:19;8.97;;;7.90;;
22929;SDS011;11630;42.660;23.292;2023-03-13T04:01:50;13.37;;;8.50;;
22929;SDS011;11630;42.660;23.292;2023-03-13T04:04:20;13.90;;;9.37;;
22929;SDS011;11630;42.660;23.292;2023-03-13T04:06:51;11.53;;;8.13;;
22929;SDS011;11630;42.660;23.292;2023-03-13T04:09:22;13.30;;;8.63;;
22929;SDS011;11630;42.660;23.292;2023-03-13T04:11:53;13.60;;;8.80;;
22929;SDS011;11630;42.660;23.292;2023-03-13T04:14:24;13.07;;;8.63;;
22929;SDS011;11630;42.660;23.292;2023-03-13T04:16:54;11.00;;;7.50;;
22929;SDS011;11630;42.660;23.292;2023-03-13T04:19:25;12.13;;;8.97;;
22929;SDS011;11630;42.660;23.292;2023-03-13T04:21:55;12.07;;;8.70;;
22929;SDS011;11630;42.660;23.292;2023-03-13T04:24:26;9.87;;;8.13;;
22929;SDS011;11630;42.660;23.292;2023-03-13T04:26:58;14.60;;;9.27;;
22929;SDS011;11630;42.660;23.292;2023-03-13T04:29:28;13.67;;;8.27;;
22929;SDS011;11630;42.660;23.292;2023-03-13T04:32:00;10.27;;;8.00;;
22929;SDS011;11630;42.660;23.292;2023-03-13T04:34:31;13.50;;;9.30;;
22929;SDS011;11630;42.660;23.292;2023-03-13T04:37:02;15.73;;;10.30;;
22929;SDS011;11630;42.660;23.292;2023-03-13T04:39:33;16.10;;;10.30;;
22929;SDS011;11630;42.660;23.292;2023-03-13T04:42:04;19.03;;;10.40;;
22929;SDS011;11630;42.660;23.292;2023-03-13T04:44:35;14.03;;;10.10;;
22929;SDS011;11630;42.660;23.292;2023-03-13T04:47:06;16.63;;;10.83;;
22929;SDS011;11630;42.660;23.292;2023-03-13T04:49:36;12.90;;;11.10;;
22929;SDS011;11630;42.660;23.292;2023-03-13T04:52:07;17.83;;;11.00;;
22929;SDS011;11630;42.660;23.292;2023-03-13T04:54:38;12.90;;;10.37;;
22929;SDS011;11630;42.660;23.292;2023-03-13T04:57:09;18.03;;;11.33;;
22929;SDS011;11630;42.660;23.292;2023-03-13T04:59:40;13.73;;;11.03;;
22929;SDS011;11630;42.660;23.292;2023-03-13T05:02:11;14.77;;;10.97;;
22929;SDS011;11630;42.660;23.292;2023-03-13T05:04:44;19.03;;;11.00;;
22929;SDS011;11630;42.660;23.292;2023-03-13T05:07:15;15.30;;;10.23;;
22929;SDS011;11630;42.660;23.292;2023-03-13T05:09:46;17.37;;;10.90;;
22929;SDS011;11630;42.660;23.292;2023-03-13T05:12:17;15.43;;;11.50;;
22929;SDS011;11630;42.660;23.292;2023-03-13T05:14:48;15.90;;;11.00;;
22929;SDS011;11630;42.660;23.292;2023-03-13T05:17:19;17.23;;;11.23;;
22929;SDS011;11630;42.660;23.292;2023-03-13T05:19:50;15.87;;;11.03;;
22929;SDS011;11630;42.660;23.292;2023-03-13T05:22:21;16.07;;;11.87;;
22929;SDS011;11630;42.660;23.292;2023-03-13T05:24:52;20.33;;;13.23;;
22929;SDS011;11630;42.660;23.292;2023-03-13T05:27:23;22.80;;;14.27;;
22929;SDS011;11630;42.660;23.292;2023-03-13T05:29:54;19.53;;;12.23;;
22929;SDS011;11630;42.660;23.292;2023-03-13T05:32:25;28.33;;;11.37;;
22929;SDS011;11630;42.660;23.292;2023-03-13T05:34:56;23.17;;;12.33;;
22929;SDS011;11630;42.660;23.292;2023-03-13T05:37:27;17.73;;;11.20;;
22929;SDS011;11630;42.660;23.292;2023-03-13T05:39:57;21.53;;;12.60;;
22929;SDS011;11630;42.660;23.292;2023-03-13T05:42:28;16.93;;;12.33;;
22929;SDS011;11630;42.660;23.292;2023-03-13T05:45:00;23.90;;;14.00;;
22929;SDS011;11630;42.660;23.292;2023-03-13T05:47:30;22.40;;;13.13;;
22929;SDS011;11630;42.660;23.292;2023-03-13T05:50:01;15.03;;;9.67;;
22929;SDS011;11630;42.660;23.292;2023-03-13T05:52:32;13.67;;;11.73;;
22929;SDS011;11630;42.660;23.292;2023-03-13T05:55:03;19.13;;;11.57;;
22929;SDS011;11630;42.660;23.292;2023-03-13T05:57:35;19.30;;;11.57;;
22929;SDS011;11630;42.660;23.292;2023-03-13T06:00:06;17.53;;;11.73;;
22929;SDS011;11630;42.660;23.292;2023-03-13T06:02:37;12.70;;;9.90;;
22929;SDS011;11630;42.660;23.292;2023-03-13T06:05:09;17.70;;;10.63;;
22929;SDS011;11630;42.660;23.292;2023-03-13T06:07:40;15.93;;;11.73;;
22929;SDS011;11630;42.660;23.292;2023-03-13T06:10:11;16.83;;;10.47;;
22929;SDS011;11630;42.660;23.292;2023-03-13T06:12:42;15.07;;;10.13;;
22929;SDS011;11630;42.660;23.292;2023-03-13T06:15:13;15.87;;;11.03;;
22929;SDS011;11630;42.660;23.292;2023-03-13T06:17:43;12.60;;;9.87;;
22929;SDS011;11630;42.660;23.292;2023-03-13T06:20:13;19.60;;;11.37;;
22929;SDS011;11630;42.660;23.292;2023-03-13T06:22:44;20.63;;;10.90;;
22929;SDS011;11630;42.660;23.292;2023-03-13T06:25:15;15.83;;;10.40;;
22929;SDS011;11630;42.660;23.292;2023-03-13T06:27:45;13.97;;;10.40;;
22929;SDS011;11630;42.660;23.292;2023-03-13T06:30:18;14.50;;;9.00;;
22929;SDS011;11630;42.660;23.292;2023-03-13T06:32:48;12.20;;;9.63;;
22929;SDS011;11630;42.660;23.292;2023-03-13T06:35:20;16.63;;;9.97;;
22929;SDS011;11630;42.660;23.292;2023-03-13T06:37:51;21.47;;;10.63;;
22929;SDS011;11630;42.660;23.292;2023-03-13T06:40:22;20.07;;;11.23;;
22929;SDS011;11630;42.660;23.292;2023-03-13T06:42:53;20.73;;;10.90;;
22929;SDS011;11630;42.660;23.292;2023-03-13T06:45:24;13.77;;;9.77;;
22929;SDS011;11630;42.660;23.292;2023-03-13T06:47:54;18.10;;;9.93;;
22929;SDS011;11630;42.660;23.292;2023-03-13T06:50:25;15.73;;;10.57;;
22929;SDS011;11630;42.660;23.292;2023-03-13T06:52:56;16.83;;;9.40;;
22929;SDS011;11630;42.660;23.292;2023-03-13T06:55:26;14.63;;;9.97;;
22929;SDS011;11630;42.660;23.292;2023-03-13T06:57:57;13.80;;;8.53;;
22929;SDS011;11630;42.660;23.292;2023-03-13T07:00:27;9.87;;;8.33;;
22929;SDS011;11630;42.660;23.292;2023-03-13T07:02:59;13.57;;;8.33;;
22929;SDS011;11630;42.660;23.292;2023-03-13T07:05:30;12.43;;;8.70;;
22929;SDS011;11630;42.660;23.292;2023-03-13T07:08:00;9.70;;;8.30;;
22929;SDS011;11630;42.660;23.292;2023-03-13T07:10:31;13.43;;;8.20;;
22929;SDS011;11630;42.660;23.292;2023-03-13T07:13:05;16.37;;;8.70;;
22929;SDS011;11630;42.660;23.292;2023-03-13T07:15:36;11.47;;;8.17;;
22929;SDS011;11630;42.660;23.292;2023-03-13T07:18:07;15.13;;;8.03;;
22929;SDS011;11630;42.660;23.292;2023-03-13T07:20:37;10.60;;;8.03;;
22929;SDS011;11630;42.660;23.292;2023-03-13T07:23:07;15.47;;;8.40;;
22929;SDS011;11630;42.660;23.292;2023-03-13T07:25:41;11.57;;;8.43;;
22929;SDS011;11630;42.660;23.292;2023-03-13T07:28:10;11.73;;;8.07;;
22929;SDS011;11630;42.660;23.292;2023-03-13T07:30:41;16.87;;;9.53;;
22929;SDS011;11630;42.660;23.292;2023-03-13T07:33:12;9.00;;;8.10;;
22929;SDS011;11630;42.660;23.292;2023-03-13T07:35:51;17.23;;;9.20;;
22929;SDS011;11630;42.660;23.292;2023-03-13T07:38:23;15.93;;;9.17;;
22929;SDS011;11630;42.660;23.292;2023-03-13T07:40:54;13.33;;;8.83;;
22929;SDS011;11630;42.660;23.292;2023-03-13T07:43:25;15.53;;;9.20;;
22929;SDS011;11630;42.660;23.292;2023-03-13T07:45:57;11.83;;;8.60;;
22929;SDS011;11630;42.660;23.292;2023-03-13T07:48:31;30.00;;;10.07;;
22929;SDS011;11630;42.660;23.292;2023-03-13T07:51:05;18.80;;;10.07;;
22929;SDS011;11630;42.660;23.292;2023-03-13T07:53:37;12.93;;;10.27;;
22929;SDS011;11630;42.660;23.292;2023-03-13T07:56:11;11.70;;;9.60;;
22929;SDS011;11630;42.660;23.292;2023-03-13T07:58:45;15.63;;;9.90;;
22929;SDS011;11630;42.660;23.292;2023-03-13T08:01:19;14.10;;;9.47;;
22929;SDS011;11630;42.660;23.292;2023-03-13T08:03:50;15.13;;;10.83;;
22929;SDS011;11630;42.660;23.292;2023-03-13T08:06:21;13.00;;;10.23;;
22929;SDS011;11630;42.660;23.292;2023-03-13T08:08:55;11.90;;;10.60;;
22929;SDS011;11630;42.660;23.292;2023-03-13T08:11:26;13.93;;;10.37;;
22929;SDS011;11630;42.660;23.292;2023-03-13T08:13:57;17.20;;;12.67;;
22929;SDS011;11630;42.660;23.292;2023-03-13T08:16:29;12.63;;;10.27;;
22929;SDS011;11630;42.660;23.292;2023-03-13T08:19:01;14.43;;;9.97;;
22929;SDS011;11630;42.660;23.292;2023-03-13T08:21:33;17.73;;;9.00;;
22929;SDS011;11630;42.660;23.292;2023-03-13T08:24:05;18.90;;;9.83;;
22929;SDS011;11630;42.660;23.292;2023-03-13T08:26:38;13.63;;;9.40;;
22929;SDS011;11630;42.660;23.292;2023-03-13T08:29:10;14.33;;;9.00;;
22929;SDS011;11630;42.660;23.292;2023-03-13T08:31:42;10.53;;;8.97;;
22929;SDS011;11630;42.660;23.292;2023-03-13T08:34:16;11.77;;;9.33;;
22929;SDS011;11630;42.660;23.292;2023-03-13T08:36:46;19.00;;;9.37;;
22929;SDS011;11630;42.660;23.292;2023-03-13T08:39:18;17.20;;;9.73;;
22929;SDS011;11630;42.660;23.292;2023-03-13T08:41:49;13.93;;;10.40;;
22929;SDS011;11630;42.660;23.292;2023-03-13T08:44:19;17.30;;;11.13;;
22929;SDS011;11630;42.660;23.292;2023-03-13T08:46:50;13.70;;;11.30;;
22929;SDS011;11630;42.660;23.292;2023-03-13T08:49:20;20.87;;;11.70;;
22929;SDS011;11630;42.660;23.292;2023-03-13T08:51:51;15.57;;;11.77;;
22929;SDS011;11630;42.660;23.292;2023-03-13T08:54:22;14.07;;;11.50;;
22929;SDS011;11630;42.660;23.292;2023-03-13T08:56:53;14.00;;;11.10;;
22929;SDS011;11630;42.660;23.292;2023-03-13T08:59:24;17.73;;;11.43;;
22929;SDS011;11630;42.660;23.292;2023-03-13T09:01:55;15.43;;;12.77;;
22929;SDS011;11630;42.660;23.292;2023-03-13T09:04:26;16.63;;;12.30;;
22929;SDS011;11630;42.660;23.292;2023-03-13T09:06:57;15.17;;;11.90;;
22929;SDS011;11630;42.660;23.292;2023-03-13T09:09:29;15.10;;;11.37;;
22929;SDS011;11630;42.660;23.292;2023-03-13T09:11:59;16.03;;;13.03;;
22929;SDS011;11630;42.660;23.292;2023-03-13T09:14:31;14.87;;;11.57;;
22929;SDS011;11630;42.660;23.292;2023-03-13T09:17:01;14.57;;;11.57;;
22929;SDS011;11630;42.660;23.292;2023-03-13T09:19:31;14.03;;;11.73;;
22929;SDS011;11630;42.660;23.292;2023-03-13T09:22:02;16.20;;;12.23;;
22929;SDS011;11630;42.660;23.292;2023-03-13T09:24:33;12.67;;;10.53;;
22929;SDS011;11630;42.660;23.292;2023-03-13T09:27:04;17.80;;;12.97;;
22929;SDS011;11630;42.660;23.292;2023-03-13T09:29:34;17.10;;;11.50;;
22929;SDS011;11630;42.660;23.292;2023-03-13T09:32:05;17.03;;;12.77;;
22929;SDS011;11630;42.660;23.292;2023-03-13T09:34:38;15.83;;;12.60;;
22929;SDS011;11630;42.660;23.292;2023-03-13T09:37:09;24.73;;;12.97;;
22929;SDS011;11630;42.660;23.292;2023-03-13T09:39:40;16.90;;;12.10;;
22929;SDS011;11630;42.660;23.292;2023-03-13T09:42:14;21.57;;;13.17;;
22929;SDS011;11630;42.660;23.292;2023-03-13T09:44:58;15.37;;;12.00;;
22929;SDS011;11630;42.660;23.292;2023-03-13T09:47:40;17.47;;;11.63;;
22929;SDS011;11630;42.660;23.292;2023-03-13T09:50:28;17.33;;;11.70;;
22929;SDS011;11630;42.660;23.292;2023-03-13T09:52:44;18.40;;;13.40;;
22929;SDS011;11630;42.660;23.292;2023-03-13T09:55:19;22.50;;;12.50;;
22929;SDS011;11630;42.660;23.292;2023-03-13T10:00:37;17.63;;;13.37;;
22929;SDS011;11630;42.660;23.292;2023-03-13T10:06:01;15.37;;;12.30;;
22929;SDS011;11630;42.660;23.292;2023-03-13T10:08:32;19.73;;;13.80;;
22929;SDS011;11630;42.660;23.292;2023-03-13T10:11:13;18.27;;;13.83;;
22929;SDS011;11630;42.660;23.292;2023-03-13T10:13:44;16.13;;;12.47;;
22929;SDS011;11630;42.660;23.292;2023-03-13T10:16:26;16.27;;;12.43;;
22929;SDS011;11630;42.660;23.292;2023-03-13T10:18:57;21.47;;;12.70;;
22929;SDS011;11630;42.660;23.292;2023-03-13T10:21:31;14.03;;;12.13;;
22929;SDS011;11630;42.660;23.292;2023-03-13T10:24:13;16.03;;;13.43;;
22929;SDS011;11630;42.660;23.292;2023-03-13T10:26:55;14.20;;;12.20;;
22929;SDS011;11630;42.660;23.292;2023-03-13T10:29:26;15.17;;;12.10;;
22929;SDS011;11630;42.660;23.292;2023-03-13T10:32:01;23.50;;;14.07;;
22929;SDS011;11630;42.660;23.292;2023-03-13T10:35:07;22.53;;;13.03;;
22929;SDS011;11630;42.660;23.292;2023-03-13T10:37:21;16.27;;;12.57;;
22929;SDS011;11630;42.660;23.292;2023-03-13T10:39:51;18.20;;;13.17;;
22929;SDS011;11630;42.660;23.292;2023-03-13T10:42:30;17.20;;;13.73;;
22929;SDS011;11630;42.660;23.292;2023-03-13T10:45:03;18.20;;;13.20;;
22929;SDS011;11630;42.660;23.292;2023-03-13T10:47:35;21.27;;;13.17;;
22929;SDS011;11630;42.660;23.292;2023-03-13T10:50:05;14.70;;;13.10;;
22929;SDS011;11630;42.660;23.292;2023-03-13T10:52:43;17.17;;;13.43;;
22929;SDS011;11630;42.660;23.292;2023-03-13T10:55:19;18.83;;;14.50;;
22929;SDS011;11630;42.660;23.292;2023-03-13T11:00:39;18.60;;;13.20;;
22929;SDS011;11630;42.660;23.292;2023-03-13T11:03:14;18.13;;;14.40;;
22929;SDS011;11630;42.660;23.292;2023-03-13T11:05:55;19.40;;;13.27;;
22929;SDS011;11630;42.660;23.292;2023-03-13T11:08:35;23.03;;;14.20;;
22929;SDS011;11630;42.660;23.292;2023-03-13T11:11:05;20.47;;;11.67;;
22929;SDS011;11630;42.660;23.292;2023-03-13T11:13:38;13.63;;;11.43;;
22929;SDS011;11630;42.660;23.292;2023-03-13T11:21:46;20.30;;;13.60;;
22929;SDS011;11630;42.660;23.292;2023-03-13T11:27:18;16.97;;;14.20;;
22929;SDS011;11630;42.660;23.292;2023-03-13T11:32:35;20.90;;;14.97;;
22929;SDS011;11630;42.660;23.292;2023-03-13T11:35:03;20.33;;;14.30;;
22929;SDS011;11630;42.660;23.292;2023-03-13T11:37:34;19.13;;;14.67;;
22929;SDS011;11630;42.660;23.292;2023-03-13T11:54:10;15.33;;;13.47;;
22929;SDS011;11630;42.660;23.292;2023-03-13T11:56:48;33.37;;;14.73;;
22929;SDS011;11630;42.660;23.292;2023-03-13T12:04:56;20.87;;;14.67;;
22929;SDS011;11630;42.660;23.292;2023-03-13T12:07:34;15.43;;;13.13;;
22929;SDS011;11630;42.660;23.292;2023-03-13T12:12:55;18.33;;;14.20;;
22929;SDS011;11630;42.660;23.292;2023-03-13T12:15:41;18.33;;;14.00;;
22929;SDS011;11630;42.660;23.292;2023-03-13T12:18:22;17.87;;;14.10;;
22929;SDS011;11630;42.660;23.292;2023-03-13T12:24:02;16.83;;;13.93;;
22929;SDS011;11630;42.660;23.292;2023-03-13T12:26:41;25.03;;;14.57;;
22929;SDS011;11630;42.660;23.292;2023-03-13T12:32:12;21.73;;;13.37;;
22929;SDS011;11630;42.660;23.292;2023-03-13T12:34:59;19.20;;;13.93;;
22929;SDS011;11630;42.660;23.292;2023-03-13T12:40:24;20.97;;;14.90;;
22929;SDS011;11630;42.660;23.292;2023-03-13T12:43:01;19.93;;;14.73;;
22929;SDS011;11630;42.660;23.292;2023-03-13T12:45:32;18.37;;;14.17;;
22929;SDS011;11630;42.660;23.292;2023-03-13T12:51:00;17.63;;;14.10;;
22929;SDS011;11630;42.660;23.292;2023-03-13T12:59:07;19.37;;;15.50;;
22929;SDS011;11630;42.660;23.292;2023-03-13T13:01:51;21.37;;;15.70;;
22929;SDS011;11630;42.660;23.292;2023-03-13T13:04:26;17.97;;;14.53;;
22929;SDS011;11630;42.660;23.292;2023-03-13T13:07:04;21.60;;;15.23;;
22929;SDS011;11630;42.660;23.292;2023-03-13T13:09:36;21.30;;;15.67;;
22929;SDS011;11630;42.660;23.292;2023-03-13T13:12:22;20.63;;;14.30;;
22929;SDS011;11630;42.660;23.292;2023-03-13T13:14:58;24.40;;;14.83;;
22929;SDS011;11630;42.660;23.292;2023-03-13T13:17:38;23.07;;;14.47;;
22929;SDS011;11630;42.660;23.292;2023-03-13T13:25:54;16.37;;;13.97;;
22929;SDS011;11630;42.660;23.292;2023-03-13T13:28:28;16.53;;;14.20;;
22929;SDS011;11630;42.660;23.292;2023-03-13T13:30:57;21.23;;;13.50;;
22929;SDS011;11630;42.660;23.292;2023-03-13T13:33:33;19.67;;;14.80;;
22929;SDS011;11630;42.660;23.292;2023-03-13T13:38:49;20.23;;;14.20;;
22929;SDS011;11630;42.660;23.292;2023-03-13T13:41:21;20.83;;;14.87;;
22929;SDS011;11630;42.660;23.292;2023-03-13T13:46:50;21.30;;;13.43;;
22929;SDS011;11630;42.660;23.292;2023-03-13T13:49:27;21.67;;;14.67;;
22929;SDS011;11630;42.660;23.292;2023-03-13T13:57:20;24.97;;;13.37;;
22929;SDS011;11630;42.660;23.292;2023-03-13T14:00:04;15.63;;;13.63;;
22929;SDS011;11630;42.660;23.292;2023-03-13T14:02:36;20.53;;;13.67;;
22929;SDS011;11630;42.660;23.292;2023-03-13T14:05:14;30.10;;;15.23;;
22929;SDS011;11630;42.660;23.292;2023-03-13T14:07:50;21.20;;;16.67;;
22929;SDS011;11630;42.660;23.292;2023-03-13T14:13:14;25.30;;;13.53;;
22929;SDS011;11630;42.660;23.292;2023-03-13T14:15:45;21.40;;;13.77;;
22929;SDS011;11630;42.660;23.292;2023-03-13T14:18:20;17.10;;;13.40;;
22929;SDS011;11630;42.660;23.292;2023-03-13T14:20:58;19.20;;;15.33;;
22929;SDS011;11630;42.660;23.292;2023-03-13T14:26:09;16.97;;;12.80;;
22929;SDS011;11630;42.660;23.292;2023-03-13T14:28:51;18.80;;;13.60;;
22929;SDS011;11630;42.660;23.292;2023-03-13T14:31:25;17.97;;;13.07;;
22929;SDS011;11630;42.660;23.292;2023-03-13T14:34:03;24.37;;;13.77;;
22929;SDS011;11630;42.660;23.292;2023-03-13T14:36:47;20.03;;;13.03;;
22929;SDS011;11630;42.660;23.292;2023-03-13T14:39:41;16.87;;;13.03;;
22929;SDS011;11630;42.660;23.292;2023-03-13T14:42:15;17.13;;;12.40;;
22929;SDS011;11630;42.660;23.292;2023-03-13T14:44:45;17.37;;;12.73;;
22929;SDS011;11630;42.660;23.292;2023-03-13T14:47:26;14.10;;;10.50;;
22929;SDS011;11630;42.660;23.292;2023-03-13T14:50:02;13.67;;;11.80;;
22929;SDS011;11630;42.660;23.292;2023-03-13T14:52:31;21.77;;;13.47;;
22929;SDS011;11630;42.660;23.292;2023-03-13T14:55:11;21.60;;;13.57;;
22929;SDS011;11630;42.660;23.292;2023-03-13T14:57:34;25.63;;;13.70;;
22929;SDS011;11630;42.660;23.292;2023-03-13T15:00:41;15.27;;;13.67;;
22929;SDS011;11630;42.660;23.292;2023-03-13T15:02:47;14.83;;;11.47;;
22929;SDS011;11630;42.660;23.292;2023-03-13T15:05:30;27.80;;;13.23;;
22929;SDS011;11630;42.660;23.292;2023-03-13T15:08:01;15.97;;;12.27;;
22929;SDS011;11630;42.660;23.292;2023-03-13T15:10:34;16.30;;;11.83;;
22929;SDS011;11630;42.660;23.292;2023-03-13T15:15:54;19.80;;;13.07;;
22929;SDS011;11630;42.660;23.292;2023-03-13T15:18:26;15.70;;;12.37;;
22929;SDS011;11630;42.660;23.292;2023-03-13T15:23:56;18.30;;;12.73;;
22929;SDS011;11630;42.660;23.292;2023-03-13T15:26:44;20.57;;;13.53;;
22929;SDS011;11630;42.660;23.292;2023-03-13T15:29:14;21.70;;;12.30;;
22929;SDS011;11630;42.660;23.292;2023-03-13T15:31:44;37.90;;;13.30;;
22929;SDS011;11630;42.660;23.292;2023-03-13T15:34:17;29.87;;;13.90;;
22929;SDS011;11630;42.660;23.292;2023-03-13T15:36:49;22.00;;;14.13;;
22929;SDS011;11630;42.660;23.292;2023-03-13T15:39:19;23.37;;;13.80;;
22929;SDS011;11630;42.660;23.292;2023-03-13T15:41:56;24.63;;;13.13;;
22929;SDS011;11630;42.660;23.292;2023-03-13T15:44:29;16.33;;;11.93;;
22929;SDS011;11630;42.660;23.292;2023-03-13T15:46:59;22.40;;;12.63;;
22929;SDS011;11630;42.660;23.292;2023-03-13T15:49:30;18.87;;;12.13;;
22929;SDS011;11630;42.660;23.292;2023-03-13T15:52:01;27.60;;;12.47;;
22929;SDS011;11630;42.660;23.292;2023-03-13T15:54:31;21.57;;;12.50;;
22929;SDS011;11630;42.660;23.292;2023-03-13T15:57:02;19.27;;;14.13;;
22929;SDS011;11630;42.660;23.292;2023-03-13T15:59:33;24.03;;;16.03;;
22929;SDS011;11630;42.660;23.292;2023-03-13T16:02:05;22.40;;;15.17;;
22929;SDS011;11630;42.660;23.292;2023-03-13T16:04:44;32.93;;;16.23;;
22929;SDS011;11630;42.660;23.292;2023-03-13T16:07:16;23.13;;;15.50;;
22929;SDS011;11630;42.660;23.292;2023-03-13T16:09:48;31.33;;;18.87;;
22929;SDS011;11630;42.660;23.292;2023-03-13T16:12:24;27.63;;;17.50;;
22929;SDS011;11630;42.660;23.292;2023-03-13T16:14:55;30.30;;;18.63;;
22929;SDS011;11630;42.660;23.292;2023-03-13T16:17:26;31.10;;;17.00;;
22929;SDS011;11630;42.660;23.292;2023-03-13T16:19:57;31.67;;;16.77;;
22929;SDS011;11630;42.660;23.292;2023-03-13T16:22:28;27.83;;;16.57;;
22929;SDS011;11630;42.660;23.292;2023-03-13T16:25:01;21.70;;;16.00;;